Time;durP1;ratioP1;P1;durP2;ratioP2;P2;SDS_P1;SDS_P2;PMS_P1;PMS_P2;Temp;Humidity;BMP_temperature;BMP_pressure;BME280_temperature;BME280_humidity;BME280_pressure;Samples;Min_cycle;Max_cycle;Signal;HPM_P1;HPM_P2
2023/05/26 00:01:50;;;;;;;11.80;6.80;;;;;;;-141.97;80.94;47517.16;4957430;29;20258;-86
2023/05/26 00:04:16;;;;;;;10.23;6.80;;;;;;;-141.97;81.51;47695.91;4959045;28;20204;-86
2023/05/26 00:06:46;;;;;;;14.17;7.20;;;;;;;-141.97;81.76;47619.03;4958672;28;20291;-87
2023/05/26 00:09:12;;;;;;;8.63;6.20;;;;;;;-141.97;81.31;47663.22;4959153;28;20177;-86
2023/05/26 00:11:38;;;;;;;11.23;6.30;;;;;;;-141.97;81.27;47818.94;4958818;28;20252;-85
2023/05/26 00:14:03;;;;;;;10.30;6.60;;;;;;;-141.97;80.39;47680.53;4957318;29;20180;-86
2023/05/26 00:16:28;;;;;;;13.07;6.40;;;;;;;-141.97;80.15;47834.31;4959164;28;20165;-86
2023/05/26 00:18:54;;;;;;;9.20;6.53;;;;;;;-141.97;80.50;47661.31;4958600;28;20177;-87
2023/05/26 00:21:19;;;;;;;10.03;6.17;;;;;;;-141.97;80.45;47672.84;4958292;29;20164;-86
2023/05/26 00:23:45;;;;;;;11.40;6.37;;;;;;;-141.97;81.20;47607.50;4957991;28;20168;-87
2023/05/26 00:26:10;;;;;;;11.43;6.40;;;;;;;-141.97;81.39;47588.28;4973121;28;20222;-87
2023/05/26 00:28:36;;;;;;;10.17;6.67;;;;;;;-141.97;81.11;47868.91;4979855;28;20175;-87
2023/05/26 00:31:01;;;;;;;11.13;6.93;;;;;;;-141.97;81.28;47842.00;4996850;28;20163;-86
2023/05/26 00:33:26;;;;;;;10.10;6.50;;;;;;;-141.97;81.61;47576.75;4996209;28;20295;-87
2023/05/26 00:35:52;;;;;;;13.17;6.87;;;;;;;-141.97;81.36;47557.53;4979755;28;20170;-87
2023/05/26 00:38:17;;;;;;;10.93;7.03;;;;;;;-141.97;81.63;47688.22;4979583;28;20202;-86
2023/05/26 00:40:43;;;;;;;10.87;7.10;;;;;;;-141.97;82.82;47757.41;4996087;28;20210;-86
2023/05/26 00:43:08;;;;;;;13.83;7.27;;;;;;;-141.97;82.61;47697.84;4996777;28;20227;-87
2023/05/26 00:45:36;;;;;;;10.40;6.90;;;;;;;-141.97;82.89;47803.56;4997248;28;20191;-87
2023/05/26 00:48:02;;;;;;;11.40;7.10;;;;;;;-141.97;83.28;47546.00;4996742;28;20170;-86
2023/05/26 00:50:29;;;;;;;11.20;6.50;;;;;;;-141.97;83.53;47669.00;4996080;28;20162;-86
2023/05/26 00:52:55;;;;;;;8.97;6.33;;;;;;;-141.97;83.54;47776.63;4996548;28;20247;-86
2023/05/26 00:55:21;;;;;;;11.37;7.20;;;;;;;-141.97;84.90;47622.88;4996700;28;20163;-86
2023/05/26 00:57:47;;;;;;;11.47;7.20;;;;;;;-141.97;84.70;47822.78;4996473;28;20234;-87
2023/05/26 01:00:13;;;;;;;12.90;6.77;;;;;;;-141.97;84.92;47780.47;4996831;28;20596;-86
2023/05/26 01:02:39;;;;;;;11.43;7.43;;;;;;;-141.97;85.33;47686.31;5008174;28;20162;-86
2023/05/26 01:05:06;;;;;;;12.37;7.53;;;;;;;-141.97;85.36;47561.38;5007089;28;20224;-87
2023/05/26 01:07:32;;;;;;;12.10;7.23;;;;;;;-141.97;84.95;47580.59;4979868;28;20278;-86
2023/05/26 01:09:57;;;;;;;11.47;7.23;;;;;;;-141.97;84.40;47538.28;4996118;28;20168;-87
2023/05/26 01:12:28;;;;;;;13.27;7.13;;;;;;;-141.97;83.89;47690.16;4997011;28;20292;-87
2023/05/26 01:15:05;;;;;;;13.40;7.87;;;;;;;-141.97;83.89;47588.28;4979929;28;20641;-86
2023/05/26 01:18:03;;;;;;;12.37;7.57;;;;;;;-141.97;83.83;47728.59;4979273;28;20167;-85
2023/05/26 01:20:38;;;;;;;9.97;7.33;;;;;;;-141.97;84.28;47718.97;4996581;28;20551;-86
2023/05/26 01:23:17;;;;;;;10.90;7.13;;;;;;;-141.97;83.99;47718.97;4979740;28;20171;-86
2023/05/26 01:25:47;;;;;;;10.30;7.17;;;;;;;-141.97;83.60;47669.00;5002695;28;20239;-85
2023/05/26 01:28:43;;;;;;;10.77;6.87;;;;;;;-141.97;84.60;47588.28;5001122;28;20167;-84
2023/05/26 01:31:09;;;;;;;13.67;7.53;;;;;;;-141.97;85.10;47603.66;4956624;29;20201;-86
2023/05/26 01:33:35;;;;;;;11.30;6.50;;;;;;;-141.97;84.93;47676.69;4955148;29;20535;-86
2023/05/26 01:36:01;;;;;;;11.27;7.13;;;;;;;-141.97;85.48;47634.41;4955618;29;20236;-86
2023/05/26 01:38:27;;;;;;;9.07;6.73;;;;;;;-141.97;85.62;47845.84;4945236;29;20208;-84
2023/05/26 01:41:02;;;;;;;10.10;7.07;;;;;;;-141.97;85.50;47711.28;4958150;28;20204;-85
2023/05/26 01:43:41;;;;;;;9.23;7.13;;;;;;;-141.97;85.56;47617.09;4974215;29;20212;-86
2023/05/26 01:47:03;;;;;;;12.03;7.30;;;;;;;-141.97;85.20;47715.13;4975852;28;20220;-85
2023/05/26 01:49:30;;;;;;;13.63;6.90;;;;;;;-141.97;84.52;47613.25;4861486;29;20673;-86
2023/05/26 01:52:04;;;;;;;13.50;7.33;;;;;;;-141.97;85.04;47676.69;4861793;29;20176;-86
2023/05/26 01:54:37;;;;;;;10.20;7.33;;;;;;;-141.97;85.56;47634.41;4861312;29;20181;-86
2023/05/26 01:57:03;;;;;;;12.80;7.67;;;;;;;-141.97;86.38;47682.47;4860349;29;20204;-86
2023/05/26 01:59:30;;;;;;;13.00;7.80;;;;;;;-141.97;87.18;47676.69;4860996;29;20184;-86
2023/05/26 02:01:56;;;;;;;12.77;8.40;;;;;;;-141.97;87.98;47672.84;4860657;29;20744;-86
2023/05/26 02:04:21;;;;;;;13.87;8.20;;;;;;;-141.97;88.63;47724.75;4844319;29;20283;-87
2023/05/26 02:06:46;;;;;;;15.30;8.53;;;;;;;-141.97;88.95;47697.84;4867706;29;20214;-87
2023/05/26 02:09:12;;;;;;;14.80;9.50;;;;;;;-141.97;89.78;47655.53;4897539;29;20211;-87
2023/05/26 02:11:37;;;;;;;16.83;10.17;;;;;;;-141.97;89.56;47663.22;4898142;29;20508;-86
2023/05/26 02:14:03;;;;;;;14.63;10.10;;;;;;;-141.97;89.26;47797.78;4897821;29;20190;-86
2023/05/26 02:16:28;;;;;;;16.33;9.67;;;;;;;-141.97;89.07;47661.31;4881695;29;20719;-87
2023/05/26 02:18:54;;;;;;;16.77;10.23;;;;;;;-141.97;89.83;47644.00;4897668;29;20235;-86
2023/05/26 02:21:20;;;;;;;17.63;10.63;;;;;;;-141.97;89.92;47849.69;4974523;28;20191;-86
2023/05/26 02:23:46;;;;;;;18.43;10.90;;;;;;;-141.97;90.01;47830.47;4978590;28;20170;-88
2023/05/26 02:26:11;;;;;;;17.70;10.40;;;;;;;-141.97;90.21;47605.56;4991051;28;20571;-86
2023/05/26 02:28:40;;;;;;;14.63;10.40;;;;;;;-141.97;90.35;47720.91;4956544;28;20260;-85
2023/05/26 02:31:06;;;;;;;17.63;10.40;;;;;;;-141.97;90.21;47757.41;4956421;28;20169;-87
2023/05/26 02:33:31;;;;;;;21.53;10.13;;;;;;;-141.97;90.80;47588.28;4955160;28;20180;-86
2023/05/26 02:35:57;;;;;;;16.40;10.03;;;;;;;-141.97;91.10;47611.34;4955196;29;20235;-86
2023/05/26 02:38:22;;;;;;;15.87;9.70;;;;;;;-141.97;90.48;47642.09;4956547;28;20173;-87
2023/05/26 02:40:51;;;;;;;17.67;10.07;;;;;;;-141.97;89.97;47561.38;4956584;28;20180;-86
2023/05/26 02:43:17;;;;;;;23.27;9.67;;;;;;;-141.97;89.73;47699.75;4955134;29;20172;-86
2023/05/26 02:45:43;;;;;;;15.17;8.87;;;;;;;-141.97;89.80;47776.63;4955129;29;20291;-86
2023/05/26 02:48:08;;;;;;;16.60;8.50;;;;;;;-141.97;89.84;47757.41;4956427;28;20701;-87
2023/05/26 02:50:34;;;;;;;15.50;7.43;;;;;;;-141.97;89.89;47676.69;4954714;29;20176;-86
2023/05/26 02:52:59;;;;;;;29.17;15.40;;;;;;;-141.97;89.52;47497.94;4956340;29;20199;-86
2023/05/26 02:55:25;;;;;;;16.33;7.03;;;;;;;-141.97;89.30;47622.88;4954534;29;20204;-86
2023/05/26 02:57:51;;;;;;;16.50;7.43;;;;;;;-141.97;89.47;47649.78;4973110;28;20227;-88
2023/05/26 03:00:18;;;;;;;19.70;7.97;;;;;;;-141.97;88.81;47713.22;4974424;28;20282;-87
2023/05/26 03:02:44;;;;;;;15.00;7.40;;;;;;;-141.97;88.64;47786.25;4978157;28;20706;-87
2023/05/26 03:05:09;;;;;;;16.20;7.27;;;;;;;-141.97;88.23;47701.69;4981185;28;20187;-85
2023/05/26 03:07:35;;;;;;;13.90;7.63;;;;;;;-141.97;87.63;47749.72;5000609;28;20199;-86
2023/05/26 03:10:01;;;;;;;15.37;7.60;;;;;;;-141.97;87.68;47715.13;4988613;28;20180;-86
2023/05/26 03:12:26;;;;;;;17.80;7.07;;;;;;;-141.97;87.29;47607.50;4981163;28;20172;-87
2023/05/26 03:14:51;;;;;;;10.83;7.60;;;;;;;-141.97;87.26;47661.31;4981804;28;20167;-86
2023/05/26 03:17:17;;;;;;;13.40;7.37;;;;;;;-141.97;87.64;47792.03;4982421;28;20167;-87
2023/05/26 03:19:44;;;;;;;14.97;7.73;;;;;;;-141.97;87.79;47534.44;4982059;28;20235;-87
2023/05/26 03:22:10;;;;;;;13.20;7.07;;;;;;;-141.97;87.83;47642.09;4981618;28;20162;-86
2023/05/26 03:24:36;;;;;;;12.67;8.20;;;;;;;-141.97;87.06;47845.84;4981723;28;20553;-86
2023/05/26 03:27:01;;;;;;;12.93;7.83;;;;;;;-141.97;86.81;47742.03;4979294;28;20195;-86
2023/05/26 03:29:29;;;;;;;13.57;8.03;;;;;;;-141.97;87.36;47634.41;4981558;28;20180;-87
2023/05/26 03:31:54;;;;;;;13.53;7.47;;;;;;;-141.97;87.71;47549.84;4981438;28;20164;-87
2023/05/26 03:34:21;;;;;;;16.13;7.73;;;;;;;-141.97;88.20;47715.13;4981483;28;20196;-87
2023/05/26 03:36:49;;;;;;;12.27;7.20;;;;;;;-141.97;88.09;47722.81;4981424;28;20621;-87
2023/05/26 03:39:15;;;;;;;11.87;7.13;;;;;;;-141.97;88.22;47728.59;4964617;28;20553;-87
2023/05/26 03:41:40;;;;;;;16.33;7.90;;;;;;;-141.97;88.15;47740.13;4981509;28;20267;-87
2023/05/26 03:44:06;;;;;;;15.47;8.13;;;;;;;-141.97;88.45;47784.34;4981584;28;20709;-86
2023/05/26 03:46:32;;;;;;;13.03;7.57;;;;;;;-141.97;88.49;47651.69;4963651;28;20190;-86
2023/05/26 03:48:57;;;;;;;11.23;7.50;;;;;;;-141.97;88.89;47772.78;4980336;28;20199;-85
2023/05/26 03:51:23;;;;;;;10.93;8.07;;;;;;;-141.97;89.09;47580.59;4981297;28;20172;-86
2023/05/26 03:53:48;;;;;;;14.43;8.30;;;;;;;-141.97;89.03;47649.78;4981698;28;20196;-86
2023/05/26 03:56:14;;;;;;;14.43;8.43;;;;;;;-141.97;88.63;47642.09;4982539;28;20617;-87
2023/05/26 03:58:39;;;;;;;14.87;8.70;;;;;;;-141.97;88.78;47524.84;4991571;28;20238;-87
2023/05/26 04:01:05;;;;;;;14.33;8.60;;;;;;;-141.97;88.41;47603.66;4983163;28;20191;-85
2023/05/26 04:03:31;;;;;;;15.33;9.20;;;;;;;-141.97;88.08;47672.84;4980919;28;20311;-86
2023/05/26 04:05:59;;;;;;;16.07;9.20;;;;;;;-141.97;87.18;47743.97;4981542;28;20188;-86
2023/05/26 04:08:28;;;;;;;15.83;9.20;;;;;;;-141.97;86.97;47678.63;4981856;28;20250;-86
2023/05/26 04:10:53;;;;;;;13.23;8.70;;;;;;;-141.97;87.19;47801.63;4981745;28;20160;-86
2023/05/26 04:13:18;;;;;;;16.50;9.20;;;;;;;-141.97;86.59;47853.53;4979282;28;20202;-86
2023/05/26 04:15:44;;;;;;;11.63;8.37;;;;;;;-141.97;85.80;47813.16;4976543;28;20184;-87
2023/05/26 04:18:10;;;;;;;16.47;8.57;;;;;;;-141.97;84.87;47709.38;4978010;28;20619;-86
2023/05/26 04:20:36;;;;;;;15.13;8.60;;;;;;;-141.97;84.25;47695.91;4960630;28;20187;-86
2023/05/26 04:23:01;;;;;;;17.33;9.33;;;;;;;-141.97;84.12;47813.16;4976992;28;20164;-85
2023/05/26 04:25:27;;;;;;;15.73;9.00;;;;;;;-141.97;83.76;47788.19;4945021;28;20218;-86
2023/05/26 04:27:56;;;;;;;17.27;9.00;;;;;;;-141.97;83.02;47597.88;4977984;28;20189;-87
2023/05/26 04:30:22;;;;;;;11.80;7.87;;;;;;;-141.97;82.62;47815.09;4978220;28;20160;-86
2023/05/26 04:32:48;;;;;;;11.13;7.67;;;;;;;-141.97;82.24;47565.22;4978533;28;20168;-87
2023/05/26 04:35:13;;;;;;;12.60;8.60;;;;;;;-141.97;82.03;47815.09;4978221;28;20203;-87
2023/05/26 04:37:40;;;;;;;14.90;8.27;;;;;;;-141.97;81.83;47834.31;4967599;28;20210;-87
2023/05/26 04:40:09;;;;;;;12.27;7.77;;;;;;;-141.97;81.95;47715.13;4958437;29;20156;-87
2023/05/26 04:42:35;;;;;;;12.77;7.37;;;;;;;-141.97;81.14;47692.06;4958029;28;20616;-86
2023/05/26 04:45:02;;;;;;;13.63;8.23;;;;;;;-141.97;80.79;47807.41;4975507;28;20230;-86
2023/05/26 04:47:32;;;;;;;12.90;7.70;;;;;;;-141.97;81.16;47461.41;4987206;28;20274;-87
2023/05/26 04:49:58;;;;;;;11.50;7.60;;;;;;;-141.97;81.25;47674.78;4977166;28;20191;-86
2023/05/26 04:52:23;;;;;;;13.20;7.87;;;;;;;-141.97;80.88;47569.06;4977312;28;20605;-85
2023/05/26 04:54:49;;;;;;;14.93;8.17;;;;;;;-141.97;80.80;47872.75;4976833;28;20159;-84
2023/05/26 04:57:15;;;;;;;12.37;8.37;;;;;;;-141.97;80.67;47678.63;4978736;28;20200;-86
2023/05/26 04:59:41;;;;;;;19.23;11.27;;;;;;;-141.97;79.90;47526.75;4976933;28;20171;-85
2023/05/26 05:02:07;;;;;;;15.07;10.00;;;;;;;-141.97;79.04;47511.38;4976396;28;20161;-85
2023/05/26 05:04:32;;;;;;;24.00;15.03;;;;;;;-141.97;78.04;47626.72;4953107;28;20200;-86
2023/05/26 05:06:58;;;;;;;13.47;8.60;;;;;;;-141.97;78.32;47738.19;4959318;28;20211;-87
2023/05/26 05:09:24;;;;;;;17.17;10.30;;;;;;;-141.97;77.12;47647.84;4959862;28;20622;-87
2023/05/26 05:11:49;;;;;;;12.13;8.80;;;;;;;-141.97;76.69;47703.59;4992981;28;20172;-85
2023/05/26 05:14:15;;;;;;;11.10;8.77;;;;;;;-141.97;76.32;47638.25;4968694;28;20184;-86
2023/05/26 05:16:41;;;;;;;16.63;8.70;;;;;;;-141.97;75.75;47797.78;4974284;28;20164;-86
2023/05/26 05:19:07;;;;;;;10.30;7.67;;;;;;;-141.97;75.53;47638.25;4956784;28;20165;-86
2023/05/26 05:21:33;;;;;;;12.37;7.77;;;;;;;-141.97;77.44;47619.03;4973418;28;20182;-86
2023/05/26 05:23:58;;;;;;;10.10;7.50;;;;;;;-141.97;77.82;47865.06;4978081;28;20178;-86
2023/05/26 05:26:24;;;;;;;10.70;7.50;;;;;;;-141.97;79.16;47688.22;4977404;28;20614;-86
2023/05/26 05:28:49;;;;;;;10.87;7.50;;;;;;;-141.97;77.35;47572.91;4958557;28;20183;-84
2023/05/26 05:31:15;;;;;;;10.67;7.50;;;;;;;-141.97;77.34;47547.91;4960914;28;20169;-88
2023/05/26 05:33:40;;;;;;;12.57;7.53;;;;;;;-141.97;78.29;47734.34;4956411;29;20177;-87
2023/05/26 05:36:06;;;;;;;10.83;7.57;;;;;;;-141.97;78.65;47661.31;4956638;28;20318;-87
2023/05/26 05:38:32;;;;;;;13.03;7.90;;;;;;;-141.97;76.63;47494.09;4956442;28;20173;-87
2023/05/26 05:40:57;;;;;;;14.80;7.53;;;;;;;-141.97;75.21;47496.00;4955809;29;20228;-88
2023/05/26 05:43:22;;;;;;;10.77;7.00;;;;;;;-141.97;74.32;47638.25;4956225;29;20259;-87
2023/05/26 05:45:48;;;;;;;10.80;6.77;;;;;;;-141.97;73.26;47607.50;4955072;29;20665;-86
2023/05/26 05:48:13;;;;;;;12.57;7.00;;;;;;;-141.97;71.38;47834.31;4944123;28;20189;-88
2023/05/26 05:50:39;;;;;;;12.67;7.37;;;;;;;-141.97;71.09;47599.81;4956056;29;20167;-87
2023/05/26 05:53:04;;;;;;;10.00;6.40;;;;;;;-141.97;68.69;47534.44;4955960;29;20165;-87
2023/05/26 05:55:30;;;;;;;13.93;6.70;;;;;;;-141.97;70.10;47663.22;4956684;29;20187;-86
2023/05/26 05:57:56;;;;;;;12.17;6.80;;;;;;;-141.97;69.20;47834.31;4925823;28;1176621;-85
2023/05/26 06:00:21;;;;;;;14.70;7.27;;;;;;;-141.97;68.44;47638.25;4975738;28;20280;-85
2023/05/26 06:02:47;;;;;;;15.93;7.53;;;;;;;-141.97;69.20;47615.19;4975697;28;20660;-86
2023/05/26 06:05:13;;;;;;;10.90;7.00;;;;;;;-141.97;68.83;47584.44;4955630;28;20191;-86
2023/05/26 06:07:38;;;;;;;13.93;6.90;;;;;;;-141.97;67.65;47768.94;4972820;28;20211;-86
2023/05/26 06:10:04;;;;;;;14.93;6.63;;;;;;;-141.97;67.50;47544.06;4960486;28;20164;-86
2023/05/26 06:12:29;;;;;;;13.53;6.70;;;;;;;-141.97;66.88;47667.06;4973181;28;20180;-87
2023/05/26 06:14:55;;;;;;;10.73;6.70;;;;;;;-141.97;68.16;47768.94;4954438;29;20267;-86
2023/05/26 06:17:20;;;;;;;11.27;6.90;;;;;;;-141.97;68.33;47599.81;4963114;28;20668;-85
2023/05/26 06:19:45;;;;;;;8.77;6.50;;;;;;;-141.97;68.25;47690.16;4975032;28;20180;-86
2023/05/26 06:22:11;;;;;;;10.17;6.50;;;;;;;-141.97;68.67;47469.09;4975184;28;20176;-85
2023/05/26 06:24:36;;;;;;;21.17;14.10;;;;;;;-141.97;68.27;47876.59;4976724;28;20207;-86
2023/05/26 06:27:02;;;;;;;21.67;14.37;;;;;;;-141.97;67.22;47561.38;4953178;28;20232;-86
2023/05/26 06:29:27;;;;;;;45.63;28.80;;;;;;;-141.97;67.19;47595.97;4957540;28;20214;-86
2023/05/26 06:31:52;;;;;;;120.10;76.10;;;;;;;-141.97;67.43;47615.19;4975123;28;20176;-85
2023/05/26 06:34:18;;;;;;;106.70;67.50;;;;;;;-141.97;67.62;47563.28;4957837;28;20212;-85
2023/05/26 06:36:43;;;;;;;50.93;30.83;;;;;;;-141.97;66.92;47665.16;4974052;28;20252;-85
2023/05/26 06:39:09;;;;;;;29.40;18.03;;;;;;;-141.97;67.27;47732.44;4967921;28;20184;-85
2023/05/26 06:41:34;;;;;;;31.50;18.73;;;;;;;-141.97;67.52;47549.84;4957170;28;20751;-85
2023/05/26 06:44:00;;;;;;;13.40;6.80;;;;;;;-141.97;66.39;47665.16;4974295;28;20176;-86
2023/05/26 06:46:25;;;;;;;11.73;6.37;;;;;;;-141.97;65.31;47670.91;4957676;28;20208;-85
2023/05/26 06:48:50;;;;;;;19.97;6.20;;;;;;;-141.97;65.06;47615.19;4965569;28;20214;-85
2023/05/26 06:51:16;;;;;;;11.17;6.40;;;;;;;-141.97;66.13;47682.47;4987486;28;20212;-85
2023/05/26 06:53:41;;;;;;;13.60;6.97;;;;;;;-141.97;66.89;47574.81;4977306;28;20224;-85
2023/05/26 06:56:07;;;;;;;12.23;6.90;;;;;;;-141.97;66.44;47559.44;4975324;28;20163;-85
2023/05/26 06:58:32;;;;;;;10.43;6.13;;;;;;;-141.97;65.61;47730.50;4969585;28;20215;-85
2023/05/26 07:00:59;;;;;;;15.03;6.50;;;;;;;-141.97;63.89;47776.63;4957330;28;20234;-86
2023/05/26 07:03:25;;;;;;;14.07;6.60;;;;;;;-141.97;63.26;47515.22;4972737;28;20172;-85
2023/05/26 07:05:51;;;;;;;11.83;6.07;;;;;;;-141.97;62.14;47742.03;4958647;28;20198;-85
2023/05/26 07:08:16;;;;;;;13.27;6.03;;;;;;;-141.97;61.10;47521.00;4956658;28;20168;-85
2023/05/26 07:10:42;;;;;;;15.97;6.80;;;;;;;-141.97;60.59;47636.31;4979284;28;20172;-85
2023/05/26 07:13:07;;;;;;;12.00;6.60;;;;;;;-141.97;60.04;47544.06;4958197;28;20190;-85
2023/05/26 07:15:33;;;;;;;10.93;6.57;;;;;;;-141.97;59.86;47494.09;4974484;28;20195;-85
2023/05/26 07:17:58;;;;;;;12.17;7.30;;;;;;;-141.97;61.92;47526.75;4988536;28;20673;-85
2023/05/26 07:20:23;;;;;;;19.43;10.60;;;;;;;-141.97;62.06;47511.38;4976089;28;20191;-85
2023/05/26 07:22:49;;;;;;;10.27;6.13;;;;;;;-141.97;60.06;47507.53;4974404;28;20168;-85
2023/05/26 07:25:14;;;;;;;14.13;6.83;;;;;;;-141.97;60.39;47603.66;4953816;28;20259;-84
2023/05/26 07:27:40;;;;;;;8.07;6.03;;;;;;;-141.97;60.59;47651.69;4976823;28;20222;-84
2023/05/26 07:30:06;;;;;;;13.77;6.40;;;;;;;-141.97;61.30;47649.78;4955965;28;20246;-85
2023/05/26 07:32:31;;;;;;;9.30;6.40;;;;;;;-141.97;61.02;47778.56;4974199;28;20216;-85
2023/05/26 07:34:56;;;;;;;8.93;5.90;;;;;;;-141.97;60.50;47640.16;4962132;28;20172;-84
2023/05/26 07:37:22;;;;;;;8.83;5.50;;;;;;;-141.97;59.46;47509.47;4970061;28;20591;-84
2023/05/26 07:39:47;;;;;;;7.17;5.20;;;;;;;-141.97;59.29;47465.25;4974016;28;20192;-85
2023/05/26 07:42:13;;;;;;;9.40;5.60;;;;;;;-141.97;59.74;47592.13;4973805;28;20199;-86
2023/05/26 07:44:38;;;;;;;10.77;6.30;;;;;;;-141.97;59.33;47659.38;4972999;28;20255;-84
2023/05/26 07:47:03;;;;;;;10.73;6.00;;;;;;;-141.97;58.76;47649.78;4973954;28;20194;-85
2023/05/26 07:49:29;;;;;;;10.30;6.60;;;;;;;-141.97;58.49;47630.56;4976088;28;20168;-85
2023/05/26 07:51:54;;;;;;;13.90;6.97;;;;;;;-141.97;58.33;47471.03;4977844;28;20251;-85
2023/05/26 07:54:20;;;;;;;8.70;6.50;;;;;;;-141.97;59.51;47588.28;4969343;28;20222;-85
2023/05/26 07:56:45;;;;;;;9.50;7.00;;;;;;;-141.97;59.94;47815.09;4960085;28;20584;-84
2023/05/26 07:59:11;;;;;;;11.70;6.80;;;;;;;-141.97;59.72;47636.31;4977266;28;20282;-85
2023/05/26 08:01:36;;;;;;;16.17;6.90;;;;;;;-141.97;60.32;47561.38;4977241;28;20304;-84
2023/05/26 08:04:02;;;;;;;9.20;6.17;;;;;;;-141.97;59.89;47553.69;4977148;28;20200;-83
2023/05/26 08:06:27;;;;;;;10.97;5.90;;;;;;;-141.97;59.25;47742.03;4976482;28;20199;-84
2023/05/26 08:08:52;;;;;;;10.43;6.20;;;;;;;-141.97;59.74;47703.59;4978547;28;20183;-86
2023/05/26 08:11:18;;;;;;;11.57;6.30;;;;;;;-141.97;59.57;47722.81;4960965;28;20195;-86
2023/05/26 08:13:43;;;;;;;10.63;6.23;;;;;;;-141.97;59.89;47755.50;4974999;28;20172;-85
2023/05/26 08:16:09;;;;;;;8.33;6.00;;;;;;;-141.97;59.44;47628.63;4963881;28;20172;-85
2023/05/26 08:18:34;;;;;;;9.93;6.07;;;;;;;-141.97;59.25;47630.56;4978123;28;20301;-86
2023/05/26 08:20:59;;;;;;;10.77;6.23;;;;;;;-141.97;59.96;47449.88;4978275;28;20187;-86
2023/05/26 08:23:25;;;;;;;9.07;6.00;;;;;;;-141.97;61.08;47547.91;4985938;28;20441;-85
2023/05/26 08:25:50;;;;;;;8.67;6.40;;;;;;;-141.97;61.41;47711.28;4959838;28;20235;-86
2023/05/26 08:28:16;;;;;;;7.47;5.77;;;;;;;-141.97;60.26;47546.00;4987702;28;20175;-85
2023/05/26 08:30:41;;;;;;;9.67;6.03;;;;;;;-141.97;59.05;47624.78;4988972;28;20195;-85
2023/05/26 08:33:07;;;;;;;8.13;5.73;;;;;;;-141.97;57.20;47707.44;4979543;28;20234;-85
2023/05/26 08:35:32;;;;;;;9.27;6.03;;;;;;;-141.97;56.91;47444.13;4976550;28;20223;-85
2023/05/26 08:37:58;;;;;;;9.37;5.60;;;;;;;-141.97;56.26;47480.63;4960367;28;20849;-85
2023/05/26 08:40:23;;;;;;;7.33;6.07;;;;;;;-141.97;55.70;47530.59;4978274;28;20287;-85
2023/05/26 08:42:55;;;;;;;9.53;6.00;;;;;;;-141.97;53.93;47599.81;4977056;28;20699;-85
2023/05/26 08:45:21;;;;;;;10.93;5.70;;;;;;;-141.97;53.53;47574.81;4962686;28;20227;-86
2023/05/26 08:47:47;;;;;;;8.33;5.50;;;;;;;-141.97;53.15;47459.50;4959198;28;20199;-85
2023/05/26 08:50:15;;;;;;;8.67;6.00;;;;;;;-141.97;52.40;47592.13;4972930;28;20160;-85
2023/05/26 08:52:42;;;;;;;9.27;5.50;;;;;;;-141.97;51.77;47396.06;4976881;28;20171;-84
2023/05/26 08:55:08;;;;;;;9.47;5.90;;;;;;;-141.97;51.42;47534.44;4959958;28;20668;-84
2023/05/26 08:57:34;;;;;;;10.20;6.00;;;;;;;-141.97;51.71;47622.88;4975078;28;20219;-84
2023/05/26 09:00:01;;;;;;;8.93;5.93;;;;;;;-141.97;51.90;47586.34;4956613;28;20676;-85
2023/05/26 09:02:27;;;;;;;8.73;5.60;;;;;;;-141.97;51.91;47615.19;4956901;28;20608;-85
2023/05/26 09:04:53;;;;;;;8.17;5.60;;;;;;;-141.97;51.43;47572.91;4955886;29;20181;-84
2023/05/26 09:07:18;;;;;;;9.40;5.60;;;;;;;-141.97;52.30;47799.72;4957344;29;20259;-84
2023/05/26 09:09:44;;;;;;;10.43;5.33;;;;;;;-141.97;52.68;47613.25;4957157;28;20164;-84
2023/05/26 09:12:11;;;;;;;9.80;6.53;;;;;;;-141.97;54.74;47401.84;4956944;28;20223;-85
2023/05/26 09:14:38;;;;;;;9.83;6.70;;;;;;;-141.97;55.26;47645.94;4957626;28;20169;-84
2023/05/26 09:17:04;;;;;;;13.07;7.00;;;;;;;-141.97;55.42;47709.38;4956921;28;20211;-84
2023/05/26 09:19:32;;;;;;;13.37;7.10;;;;;;;-141.97;54.83;47570.97;4970386;28;20181;-85
2023/05/26 09:22:05;;;;;;;19.43;7.30;;;;;;;-141.97;54.53;47563.28;4987296;28;20624;-84
2023/05/26 09:24:42;;;;;;;10.70;7.47;;;;;;;-141.97;55.26;47597.88;4977369;28;20227;-84
2023/05/26 09:27:19;;;;;;;11.50;6.83;;;;;;;-141.97;53.89;47511.38;4965248;28;20667;-84
2023/05/26 09:29:57;;;;;;;13.37;7.50;;;;;;;-141.97;53.56;47449.88;4974611;28;20199;-84
2023/05/26 09:32:27;;;;;;;9.93;6.97;;;;;;;-141.97;52.60;47588.28;4958649;28;20636;-83
2023/05/26 09:34:58;;;;;;;10.27;6.10;;;;;;;-141.97;49.82;47549.84;4976191;28;20625;-84
2023/05/26 09:37:28;;;;;;;8.50;5.80;;;;;;;-141.97;49.77;47565.22;4958710;28;20227;-84
2023/05/26 09:39:54;;;;;;;11.70;6.40;;;;;;;-141.97;50.64;47488.31;4976885;28;20191;-84
2023/05/26 09:42:20;;;;;;;11.63;6.57;;;;;;;-141.97;51.85;47669.00;4980535;28;20176;-84
2023/05/26 09:44:50;;;;;;;13.00;7.17;;;;;;;-141.97;52.54;47553.69;4973625;28;20207;-84
2023/05/26 09:47:20;;;;;;;12.90;6.73;;;;;;;-141.97;51.16;47509.47;4979311;28;20199;-83
2023/05/26 09:49:45;;;;;;;10.17;6.10;;;;;;;-141.97;49.75;47607.50;4977205;28;20164;-84
2023/05/26 09:52:11;;;;;;;10.23;6.20;;;;;;;-141.97;49.48;47530.59;4975619;28;20552;-85
2023/05/26 09:54:36;;;;;;;9.03;6.17;;;;;;;-141.97;48.70;47713.22;4975926;28;20251;-84
2023/05/26 09:57:05;;;;;;;7.30;4.93;;;;;;;-141.97;47.99;47588.28;4975588;28;20164;-84
2023/05/26 09:59:38;;;;;;;8.20;5.30;;;;;;;-141.97;48.40;47592.13;4974827;28;20192;-84
2023/05/26 10:02:21;;;;;;;5.83;4.60;;;;;;;-141.97;47.01;47563.28;4976619;28;20610;-84
2023/05/26 10:04:49;;;;;;;8.07;5.10;;;;;;;-141.97;47.25;47617.09;4976138;28;20178;-84
2023/05/26 10:07:18;;;;;;;6.70;4.67;;;;;;;-141.97;46.24;47742.03;4974846;28;20191;-85
2023/05/26 10:10:03;;;;;;;7.07;4.67;;;;;;;-141.97;46.23;47570.97;4975379;28;20613;-84
2023/05/26 10:12:32;;;;;;;8.83;5.20;;;;;;;-141.97;46.18;47603.66;4973443;28;20172;-84
2023/05/26 10:14:59;;;;;;;8.10;4.73;;;;;;;-141.97;46.34;47601.72;4974855;28;20176;-85
2023/05/26 10:17:26;;;;;;;5.80;3.90;;;;;;;-141.97;44.94;47565.22;4975519;28;20247;-84
2023/05/26 10:19:53;;;;;;;6.53;4.23;;;;;;;-141.97;45.74;47580.59;4973203;28;20176;-84
2023/05/26 10:22:38;;;;;;;5.53;4.10;;;;;;;-141.97;45.57;47509.47;4954949;28;20236;-84
2023/05/26 10:25:28;;;;;;;5.18;4.20;;;;;;;-141.97;44.54;47595.97;4955366;29;20177;-90
2023/05/26 10:28:04;;;;;;;6.40;4.20;;;;;;;-141.97;44.60;47611.34;4877383;29;20295;-83
2023/05/26 10:30:31;;;;;;;8.87;3.97;;;;;;;-141.97;43.82;47563.28;4862682;29;20256;-83
2023/05/26 10:33:08;;;;;;;3.93;3.30;;;;;;;-141.97;43.24;47511.38;4881590;29;20199;-84
2023/05/26 10:35:33;;;;;;;5.53;3.60;;;;;;;-141.97;42.82;47551.75;4880570;29;20168;-83
2023/05/26 10:38:01;;;;;;;6.40;3.70;;;;;;;-141.97;43.18;47549.84;4862458;29;20195;-85
2023/05/26 10:40:37;;;;;;;5.93;4.00;;;;;;;-141.97;43.31;47613.25;4892540;29;20199;-85
2023/05/26 10:43:14;;;;;;;5.43;3.35;;;;;;;-141.97;41.88;47511.38;4894796;29;20289;-84
2023/05/26 10:45:44;;;;;;;5.95;3.53;;;;;;;-141.97;41.85;47511.38;4896098;29;20209;-84
2023/05/26 10:48:10;;;;;;;5.28;3.58;;;;;;;-141.97;42.95;47707.44;4895840;29;20253;-84
2023/05/26 10:50:54;;;;;;;4.07;3.65;;;;;;;-141.97;43.12;47580.59;4895578;29;20257;-85
2023/05/26 10:53:22;;;;;;;5.25;3.78;;;;;;;-141.97;42.43;47519.06;4896258;29;20214;-84
2023/05/26 10:56:04;;;;;;;5.65;3.72;;;;;;;-141.97;42.32;47561.38;4896364;29;20176;-84
2023/05/26 10:58:31;;;;;;;4.57;3.58;;;;;;;-141.97;41.94;47544.06;4879664;29;20229;-83
2023/05/26 11:01:06;;;;;;;4.05;3.50;;;;;;;-141.97;41.04;47480.63;4895684;29;20206;-83
2023/05/26 11:03:35;;;;;;;6.57;3.50;;;;;;;-141.97;41.68;47567.13;4862434;29;20188;-84
2023/05/26 11:06:02;;;;;;;5.43;3.55;;;;;;;-141.97;41.27;47355.72;4949613;29;20219;-84
2023/05/26 11:08:35;;;;;;;4.85;3.40;;;;;;;-141.97;40.51;47515.22;4938246;29;20263;-83
2023/05/26 11:11:05;;;;;;;4.72;3.65;;;;;;;-141.97;40.09;47340.34;4953528;29;20215;-84